createdAt,value
2022-12-06T00:00:09.005Z,3.90
2022-12-06T00:02:41.863Z,3.90
2022-12-06T00:05:09.922Z,3.90
2022-12-06T00:07:37.995Z,3.90
2022-12-06T00:10:07.525Z,3.90
2022-12-06T00:12:35.449Z,3.90
2022-12-06T00:15:03.465Z,3.80
2022-12-06T00:17:31.389Z,3.80
2022-12-06T00:20:00.837Z,3.80
2022-12-06T00:22:28.886Z,3.90
2022-12-06T00:24:56.842Z,3.90
2022-12-06T00:27:24.789Z,3.90
2022-12-06T00:29:52.754Z,3.90
2022-12-06T00:32:20.899Z,3.90
2022-12-06T00:34:48.893Z,3.80
2022-12-06T00:37:18.169Z,3.80
2022-12-06T00:39:46.117Z,3.80
2022-12-06T00:42:14.054Z,3.80
2022-12-06T00:44:41.989Z,3.80
2022-12-06T00:47:09.940Z,3.80
2022-12-06T00:49:37.896Z,3.80
2022-12-06T00:52:06.067Z,3.80
2022-12-06T00:54:35.373Z,3.70
2022-12-06T00:57:03.297Z,3.70
2022-12-06T00:59:31.241Z,3.70
2022-12-06T01:01:59.196Z,3.70
2022-12-06T01:04:27.147Z,3.80
2022-12-06T01:06:55.047Z,3.70
2022-12-06T01:09:22.985Z,3.80
2022-12-06T01:11:52.280Z,3.80
2022-12-06T01:14:20.222Z,3.80
2022-12-06T01:16:48.241Z,3.80
2022-12-06T01:19:16.268Z,3.80
2022-12-06T01:21:45.651Z,3.70
2022-12-06T01:24:13.636Z,3.70
2022-12-06T01:26:41.544Z,3.70
2022-12-06T01:29:10.980Z,3.70
2022-12-06T01:31:39.438Z,3.60
2022-12-06T01:34:08.443Z,3.60
2022-12-06T01:36:36.392Z,3.60
2022-12-06T01:39:06.869Z,3.60
2022-12-06T01:41:35.064Z,3.50
2022-12-06T01:44:03.711Z,3.50
2022-12-06T01:46:35.457Z,3.50
2022-12-06T01:49:20.063Z,3.50
2022-12-06T01:51:52.639Z,3.50
2022-12-06T01:54:22.698Z,3.50
2022-12-06T01:56:53.395Z,3.50
2022-12-06T01:59:22.327Z,3.50
2022-12-06T02:01:51.985Z,3.50
2022-12-06T02:04:21.120Z,3.40
2022-12-06T02:06:50.109Z,3.50
2022-12-06T02:09:19.647Z,3.50
2022-12-06T02:11:47.939Z,3.50
2022-12-06T02:14:20.366Z,3.50
2022-12-06T02:17:05.766Z,3.50
2022-12-06T02:19:58.515Z,3.60
2022-12-06T02:22:34.267Z,3.60
2022-12-06T02:25:20.760Z,3.70
2022-12-06T02:28:13.467Z,3.70
2022-12-06T02:30:48.533Z,3.70
2022-12-06T02:33:22.297Z,3.70
2022-12-06T02:35:55.202Z,3.60
2022-12-06T02:38:32.872Z,3.70
2022-12-06T02:41:03.343Z,3.70
2022-12-06T02:43:37.703Z,3.70
2022-12-06T02:46:08.267Z,3.70
2022-12-06T02:48:36.598Z,3.60
2022-12-06T02:51:08.223Z,3.60
2022-12-06T02:53:39.885Z,3.60
2022-12-06T02:56:09.313Z,3.50
2022-12-06T02:58:38.119Z,3.50
2022-12-06T03:01:14.012Z,3.50
2022-12-06T03:03:57.013Z,3.50
2022-12-06T03:06:46.428Z,3.50
2022-12-06T03:09:23.215Z,3.50
2022-12-06T03:12:00.643Z,3.40
2022-12-06T03:14:34.127Z,3.40
2022-12-06T03:17:14.010Z,3.40
2022-12-06T03:19:43.339Z,3.40
2022-12-06T03:22:17.158Z,3.40
2022-12-06T03:24:45.962Z,3.40
2022-12-06T03:27:18.263Z,3.40
2022-12-06T03:29:53.136Z,3.50
2022-12-06T03:32:26.482Z,3.50
2022-12-06T03:34:56.498Z,3.50
2022-12-06T03:37:26.948Z,3.60
2022-12-06T03:40:11.604Z,3.50
2022-12-06T03:42:40.432Z,3.60
2022-12-06T03:45:11.285Z,3.60
2022-12-06T03:47:48.640Z,3.60
2022-12-06T03:50:21.888Z,3.60
2022-12-06T03:52:52.128Z,3.60
2022-12-06T03:55:20.516Z,3.50
2022-12-06T03:57:48.418Z,3.50
2022-12-06T04:00:17.792Z,3.50
2022-12-06T04:02:47.166Z,3.50
2022-12-06T04:05:15.269Z,3.50
2022-12-06T04:07:43.303Z,3.50
2022-12-06T04:10:11.879Z,3.50
2022-12-06T04:12:57.504Z,3.40
2022-12-06T04:15:25.504Z,3.50
2022-12-06T04:18:13.533Z,3.40
2022-12-06T04:21:01.093Z,3.40
2022-12-06T04:23:29.809Z,3.40
2022-12-06T04:25:57.791Z,3.40
2022-12-06T04:28:43.104Z,3.40
2022-12-06T04:31:28.415Z,3.40
2022-12-06T04:34:15.421Z,3.40
2022-12-06T04:37:01.069Z,3.50
2022-12-06T04:39:29.119Z,3.40
2022-12-06T04:42:15.116Z,3.40
2022-12-06T04:44:43.333Z,3.40
2022-12-06T04:47:11.638Z,3.40
2022-12-06T04:49:41.687Z,3.40
2022-12-06T04:52:10.603Z,3.40
2022-12-06T04:54:39.266Z,3.40
2022-12-06T04:57:10.868Z,3.40
2022-12-06T04:59:39.984Z,3.40
2022-12-06T05:02:10.022Z,3.30
2022-12-06T05:04:38.000Z,3.30
2022-12-06T05:07:07.609Z,3.30
2022-12-06T05:09:35.636Z,3.30
2022-12-06T05:12:03.707Z,3.30
2022-12-06T05:14:31.818Z,3.30
2022-12-06T05:16:59.946Z,3.30
2022-12-06T05:19:28.294Z,3.30
2022-12-06T05:21:56.382Z,3.30
2022-12-06T05:24:25.781Z,3.30
2022-12-06T05:26:53.689Z,3.20
2022-12-06T05:29:21.620Z,3.20
2022-12-06T05:31:49.642Z,3.20
2022-12-06T05:34:17.595Z,3.30
2022-12-06T05:36:45.963Z,3.30
2022-12-06T05:39:13.949Z,3.30
2022-12-06T05:41:43.205Z,3.30
2022-12-06T05:44:12.100Z,3.20
2022-12-06T05:46:40.278Z,3.20
2022-12-06T05:49:08.238Z,3.20
2022-12-06T05:51:36.160Z,3.30
2022-12-06T05:54:06.624Z,3.30
2022-12-06T05:56:34.678Z,3.30
2022-12-06T05:59:04.187Z,3.30
2022-12-06T06:01:32.137Z,3.30
2022-12-06T06:04:00.059Z,3.30
2022-12-06T06:06:28.338Z,3.30
2022-12-06T06:08:56.325Z,3.30
2022-12-06T06:11:24.276Z,3.30
2022-12-06T06:13:54.403Z,3.30
2022-12-06T06:16:23.840Z,3.30
2022-12-06T06:18:51.769Z,3.30
2022-12-06T06:21:19.674Z,3.30
2022-12-06T06:23:48.035Z,3.20
2022-12-06T06:26:16.074Z,3.30
2022-12-06T06:28:44.023Z,3.40
2022-12-06T06:31:12.353Z,3.50
2022-12-06T06:33:41.657Z,3.40
2022-12-06T06:36:10.240Z,3.40
2022-12-06T06:38:38.213Z,3.30
2022-12-06T06:41:06.947Z,3.30
2022-12-06T06:43:35.001Z,3.30
2022-12-06T06:46:06.401Z,3.30
2022-12-06T06:48:38.798Z,3.30
2022-12-06T06:51:10.121Z,3.30
2022-12-06T06:53:38.263Z,3.20
2022-12-06T06:56:06.876Z,3.30
2022-12-06T06:58:35.070Z,3.30
2022-12-06T07:01:07.582Z,3.30
2022-12-06T07:03:36.481Z,3.30
2022-12-06T07:06:08.554Z,3.30
2022-12-06T07:08:38.348Z,3.30
2022-12-06T07:11:06.698Z,3.30
2022-12-06T07:13:34.659Z,3.30
2022-12-06T07:16:04.803Z,3.30
2022-12-06T07:18:33.449Z,3.30
2022-12-06T07:21:03.847Z,3.20
2022-12-06T07:23:32.189Z,3.20
2022-12-06T07:26:07.147Z,3.30
2022-12-06T07:28:37.478Z,3.30
2022-12-06T07:31:09.899Z,3.30
2022-12-06T07:33:38.531Z,3.30
2022-12-06T07:36:12.503Z,3.40
2022-12-06T07:38:42.568Z,3.40
2022-12-06T07:41:27.857Z,3.40
2022-12-06T07:44:17.337Z,3.40
2022-12-06T07:46:45.527Z,3.40
2022-12-06T07:49:13.593Z,3.50
2022-12-06T07:51:41.776Z,3.40
2022-12-06T07:54:09.884Z,3.50
2022-12-06T07:56:39.331Z,3.50
2022-12-06T07:59:07.397Z,3.50
2022-12-06T08:01:35.499Z,3.60
2022-12-06T08:04:05.293Z,3.60
2022-12-06T08:06:33.975Z,3.60
2022-12-06T08:09:01.956Z,3.70
2022-12-06T08:11:30.009Z,3.70
2022-12-06T08:13:59.382Z,3.70
2022-12-06T08:16:27.456Z,3.80
2022-12-06T08:18:56.605Z,3.80
2022-12-06T08:21:26.237Z,3.80
2022-12-06T08:23:55.000Z,3.80
2022-12-06T08:26:24.082Z,3.90
2022-12-06T08:28:52.172Z,3.90
2022-12-06T08:31:24.497Z,3.90
2022-12-06T08:33:52.599Z,4.00
2022-12-06T08:36:22.561Z,4.00
2022-12-06T08:38:54.159Z,4.00
2022-12-06T08:41:40.533Z,4.00
2022-12-06T08:44:10.839Z,4.00
2022-12-06T08:46:40.805Z,4.00
2022-12-06T08:49:09.362Z,4.10
2022-12-06T08:51:39.340Z,4.10
2022-12-06T08:54:08.777Z,4.20
2022-12-06T08:56:38.075Z,4.20
2022-12-06T08:59:06.525Z,4.20
2022-12-06T09:01:38.046Z,4.30
2022-12-06T09:04:09.932Z,4.30
2022-12-06T09:06:39.945Z,4.40
2022-12-06T09:09:08.735Z,4.40
2022-12-06T09:11:36.855Z,4.40
2022-12-06T09:14:05.074Z,4.50
2022-12-06T09:16:33.081Z,4.50
2022-12-06T09:19:01.093Z,4.50
2022-12-06T09:21:31.846Z,4.50
2022-12-06T09:24:00.433Z,4.60
2022-12-06T09:26:29.737Z,4.60
2022-12-06T09:28:58.292Z,4.60
2022-12-06T09:31:27.260Z,4.60
2022-12-06T09:33:55.303Z,4.60
2022-12-06T09:36:25.211Z,4.60
2022-12-06T09:38:57.160Z,4.60
2022-12-06T09:41:44.756Z,4.60
2022-12-06T09:44:28.535Z,4.70
2022-12-06T09:47:08.146Z,4.80
2022-12-06T09:49:46.894Z,4.90
2022-12-06T09:52:39.739Z,4.90
2022-12-06T09:55:29.340Z,5.00
2022-12-06T09:58:03.861Z,5.00
2022-12-06T10:00:38.982Z,5.10
2022-12-06T10:03:27.499Z,5.10
2022-12-06T10:06:01.513Z,5.20
2022-12-06T10:08:51.919Z,5.20
2022-12-06T10:11:33.632Z,5.20
2022-12-06T10:14:13.741Z,5.10
2022-12-06T10:16:51.466Z,5.00
2022-12-06T10:19:30.715Z,5.00
2022-12-06T10:22:10.559Z,5.00
2022-12-06T10:24:54.190Z,5.00
2022-12-06T10:27:29.434Z,5.00
2022-12-06T10:29:59.655Z,4.90
2022-12-06T10:32:50.857Z,4.90
2022-12-06T10:35:25.333Z,4.90
2022-12-06T10:38:03.957Z,5.00
2022-12-06T10:40:39.388Z,5.00
2022-12-06T10:43:16.429Z,5.00
2022-12-06T10:46:09.383Z,5.10
2022-12-06T10:48:44.656Z,5.20
2022-12-06T10:51:19.194Z,5.30
2022-12-06T10:53:52.732Z,5.30
2022-12-06T10:56:24.025Z,5.30
2022-12-06T10:58:57.941Z,5.30
2022-12-06T11:01:29.234Z,5.20
2022-12-06T11:04:01.665Z,5.20
2022-12-06T11:06:33.969Z,5.30
2022-12-06T11:09:14.143Z,5.20
2022-12-06T11:11:44.850Z,5.20
2022-12-06T11:14:21.327Z,5.20
2022-12-06T11:16:55.701Z,5.20
2022-12-06T11:19:30.818Z,5.20
2022-12-06T11:22:07.994Z,5.30
2022-12-06T11:24:47.599Z,5.30
2022-12-06T11:27:18.842Z,5.20
2022-12-06T11:29:49.910Z,5.20
2022-12-06T11:32:19.792Z,5.20
2022-12-06T11:34:51.150Z,5.30
2022-12-06T11:37:22.393Z,5.30
2022-12-06T11:39:54.028Z,5.30
2022-12-06T11:42:25.438Z,5.20
2022-12-06T11:44:58.886Z,5.30
2022-12-06T11:47:27.463Z,5.20
2022-12-06T11:50:00.365Z,5.20
2022-12-06T11:52:39.899Z,5.20
2022-12-06T11:55:17.077Z,5.30
2022-12-06T11:57:50.669Z,5.30
2022-12-06T12:00:22.367Z,5.40
2022-12-06T12:02:52.830Z,5.40
2022-12-06T12:05:23.573Z,5.40
2022-12-06T12:07:56.090Z,5.30
2022-12-06T12:10:33.763Z,5.40
2022-12-06T12:13:37.883Z,5.40
2022-12-06T12:16:15.720Z,5.40
2022-12-06T12:18:51.394Z,5.30
2022-12-06T12:21:30.843Z,5.40
2022-12-06T12:23:59.184Z,5.40
2022-12-06T12:26:37.480Z,5.40
2022-12-06T12:29:16.084Z,5.40
2022-12-06T12:31:54.334Z,5.40
2022-12-06T12:34:25.780Z,5.30
2022-12-06T12:36:56.000Z,5.30
2022-12-06T12:39:33.650Z,5.30
2022-12-06T12:42:02.608Z,5.30
2022-12-06T12:44:38.720Z,5.30
2022-12-06T12:47:19.767Z,5.30
2022-12-06T12:50:02.248Z,5.30
2022-12-06T12:52:33.232Z,5.30
2022-12-06T12:55:04.524Z,5.30
2022-12-06T12:57:32.550Z,5.40
2022-12-06T13:00:01.090Z,5.50
2022-12-06T13:02:32.699Z,5.50
2022-12-06T13:07:56.406Z,5.50
2022-12-06T13:10:32.049Z,5.50
2022-12-06T13:13:02.821Z,5.60
2022-12-06T13:15:35.659Z,5.60
2022-12-06T13:18:12.391Z,5.70
2022-12-06T13:20:41.912Z,5.60
2022-12-06T13:23:16.206Z,5.60
2022-12-06T13:25:49.891Z,5.70
2022-12-06T13:28:23.427Z,5.70
2022-12-06T13:31:00.758Z,5.70
2022-12-06T13:33:33.954Z,5.70
2022-12-06T13:36:05.642Z,5.70
2022-12-06T13:38:35.976Z,5.60
2022-12-06T13:41:05.313Z,5.60
2022-12-06T13:44:00.073Z,5.60
2022-12-06T13:46:33.250Z,5.50
2022-12-06T13:49:19.201Z,5.50
2022-12-06T13:51:48.874Z,5.40
2022-12-06T13:54:41.038Z,5.40
2022-12-06T13:57:24.719Z,5.30
2022-12-06T13:59:53.003Z,5.40
2022-12-06T14:02:46.471Z,5.40
2022-12-06T14:05:48.269Z,5.40
2022-12-06T14:08:17.728Z,5.40
2022-12-06T14:10:46.467Z,5.40
2022-12-06T14:13:19.144Z,5.40
2022-12-06T14:15:50.152Z,5.40
2022-12-06T14:18:25.121Z,5.40
2022-12-06T14:20:55.393Z,5.40
2022-12-06T14:23:28.087Z,5.40
2022-12-06T14:26:17.139Z,5.40
2022-12-06T14:28:45.797Z,5.30
2022-12-06T14:31:22.831Z,5.30
2022-12-06T14:33:51.299Z,5.30
2022-12-06T14:36:22.937Z,5.20
2022-12-06T14:39:00.548Z,5.20
2022-12-06T14:41:51.615Z,5.20
2022-12-06T14:44:20.995Z,5.20
2022-12-06T14:46:50.734Z,5.20
2022-12-06T14:49:38.900Z,5.10
2022-12-06T14:52:21.583Z,5.10
2022-12-06T14:54:52.093Z,5.10
2022-12-06T14:57:29.448Z,5.00
2022-12-06T15:00:27.221Z,5.00
2022-12-06T15:03:03.399Z,4.90
2022-12-06T15:05:37.113Z,4.90
2022-12-06T15:08:36.774Z,4.90
2022-12-06T15:11:36.493Z,4.80
2022-12-06T15:14:23.205Z,4.80
2022-12-06T15:17:00.668Z,4.80
2022-12-06T15:19:30.433Z,4.80
2022-12-06T15:21:58.347Z,4.80
2022-12-06T15:24:28.553Z,4.70
2022-12-06T15:26:58.512Z,4.70
2022-12-06T15:29:26.530Z,4.70
2022-12-06T15:31:55.647Z,4.70
2022-12-06T15:34:26.733Z,4.70
2022-12-06T15:37:15.159Z,4.70
2022-12-06T15:39:43.697Z,4.70
2022-12-06T15:42:18.608Z,4.70
2022-12-06T15:44:49.554Z,4.70
2022-12-06T15:47:19.357Z,4.70
2022-12-06T15:49:47.615Z,4.60
2022-12-06T15:52:18.285Z,4.60
2022-12-06T15:54:46.685Z,4.60
2022-12-06T15:57:16.042Z,4.50
2022-12-06T15:59:43.968Z,4.40
2022-12-06T16:02:15.359Z,4.40
2022-12-06T16:04:44.129Z,4.40
2022-12-06T16:07:13.428Z,4.40
2022-12-06T16:09:41.465Z,4.40
2022-12-06T16:12:10.424Z,4.30
2022-12-06T16:14:39.739Z,4.30
2022-12-06T16:17:07.766Z,4.30
2022-12-06T16:19:53.378Z,4.20
2022-12-06T16:22:41.784Z,4.20
2022-12-06T16:25:10.282Z,4.10
2022-12-06T16:27:38.264Z,4.10
2022-12-06T16:30:09.079Z,4.10
2022-12-06T16:32:37.527Z,4.10
2022-12-06T16:35:05.947Z,4.10
2022-12-06T16:37:33.870Z,4.20
2022-12-06T16:40:01.902Z,4.20
2022-12-06T16:42:29.932Z,4.20
2022-12-06T16:44:58.085Z,4.20
2022-12-06T16:49:54.482Z,4.20
2022-12-06T16:52:22.409Z,4.20
2022-12-06T16:54:50.314Z,4.20
2022-12-06T16:57:19.454Z,4.30
2022-12-06T16:59:47.574Z,4.20
2022-12-06T17:02:27.827Z,4.30
2022-12-06T17:04:56.331Z,4.20
2022-12-06T17:07:24.350Z,4.20
2022-12-06T17:09:52.341Z,4.30
2022-12-06T17:12:20.795Z,4.30
2022-12-06T17:14:49.127Z,4.30
2022-12-06T17:17:20.670Z,4.30
2022-12-06T17:19:50.531Z,4.30
2022-12-06T17:22:18.948Z,4.30
2022-12-06T17:24:47.324Z,4.30
2022-12-06T17:27:15.573Z,4.40
2022-12-06T17:29:44.262Z,4.30
2022-12-06T17:32:12.499Z,4.30
2022-12-06T17:34:40.487Z,4.30
2022-12-06T17:37:11.222Z,4.30
2022-12-06T17:39:39.261Z,4.30
2022-12-06T17:42:24.903Z,4.30
2022-12-06T17:44:53.157Z,4.20
2022-12-06T17:47:21.127Z,4.20
2022-12-06T17:49:49.064Z,4.20
2022-12-06T17:52:18.614Z,4.20
2022-12-06T17:54:46.548Z,4.20
2022-12-06T17:57:18.115Z,4.10
2022-12-06T17:59:47.456Z,4.10
2022-12-06T18:02:17.667Z,4.10
2022-12-06T18:04:47.378Z,4.10
2022-12-06T18:07:16.256Z,4.10
2022-12-06T18:09:46.213Z,4.10
2022-12-06T18:12:15.391Z,4.10
2022-12-06T18:14:43.407Z,4.10
2022-12-06T18:17:11.505Z,4.10
2022-12-06T18:19:40.408Z,4.10
2022-12-06T18:22:08.913Z,4.10
2022-12-06T18:24:36.936Z,4.20
2022-12-06T18:27:07.214Z,4.20
2022-12-06T18:29:35.655Z,4.20
2022-12-06T18:32:04.640Z,4.20
2022-12-06T18:34:32.957Z,4.20
2022-12-06T18:37:01.240Z,4.20
2022-12-06T18:39:29.261Z,4.20
2022-12-06T18:41:57.247Z,4.20
2022-12-06T18:44:27.040Z,4.20
2022-12-06T18:46:54.978Z,4.20
2022-12-06T18:49:22.915Z,4.20
2022-12-06T18:51:51.228Z,4.20
2022-12-06T18:54:19.947Z,4.20
2022-12-06T18:56:48.005Z,4.20
2022-12-06T18:59:15.991Z,4.20
2022-12-06T19:01:45.647Z,4.20
2022-12-06T19:04:18.569Z,4.20
2022-12-06T19:06:46.896Z,4.10
2022-12-06T19:09:16.054Z,4.10
2022-12-06T19:11:45.771Z,4.10
2022-12-06T19:14:14.679Z,4.10
2022-12-06T19:16:46.076Z,4.10
2022-12-06T19:19:17.141Z,4.10
2022-12-06T19:21:46.538Z,4.10
2022-12-06T19:24:16.546Z,4.00
2022-12-06T19:26:45.858Z,4.10
2022-12-06T19:29:14.373Z,4.10
2022-12-06T19:31:42.411Z,4.10
2022-12-06T19:34:16.616Z,4.10
2022-12-06T19:36:44.985Z,4.10
2022-12-06T19:39:14.386Z,4.00
2022-12-06T19:42:00.707Z,4.00
2022-12-06T19:44:29.680Z,4.00
2022-12-06T19:46:58.883Z,4.10
2022-12-06T19:49:28.923Z,4.10
2022-12-06T19:51:57.180Z,4.10
2022-12-06T19:54:27.218Z,4.10
2022-12-06T19:56:58.264Z,4.00
2022-12-06T19:59:29.384Z,4.10
2022-12-06T20:01:58.710Z,4.00
2022-12-06T20:04:30.898Z,4.10
2022-12-06T20:06:59.293Z,4.10
2022-12-06T20:09:29.129Z,4.10
2022-12-06T20:12:05.160Z,4.10
2022-12-06T20:14:40.070Z,4.10
2022-12-06T20:17:10.128Z,4.10
2022-12-06T20:19:39.906Z,4.10
2022-12-06T20:22:08.030Z,4.10
2022-12-06T20:24:36.052Z,4.00
2022-12-06T20:27:04.041Z,4.10
2022-12-06T20:29:32.613Z,4.10
2022-12-06T20:32:01.616Z,4.00
2022-12-06T20:34:34.222Z,4.00
2022-12-06T20:37:05.780Z,4.00
2022-12-06T20:39:35.748Z,4.00
2022-12-06T20:42:05.371Z,3.90
2022-12-06T20:44:33.679Z,3.90
2022-12-06T20:47:01.703Z,3.80
2022-12-06T20:49:29.789Z,3.80
2022-12-06T20:51:59.549Z,3.70
2022-12-06T20:54:28.837Z,3.70
2022-12-06T20:56:56.793Z,3.70
2022-12-06T20:59:24.991Z,3.80
2022-12-06T21:01:53.097Z,3.70
2022-12-06T21:04:21.060Z,3.70
2022-12-06T21:06:49.471Z,3.70
2022-12-06T21:09:17.431Z,3.70
2022-12-06T21:11:46.749Z,3.70
2022-12-06T21:14:16.201Z,3.70
2022-12-06T21:16:44.735Z,3.80
2022-12-06T21:19:15.674Z,3.70
2022-12-06T21:21:47.030Z,3.80
2022-12-06T21:24:17.732Z,3.70
2022-12-06T21:26:47.257Z,3.70
2022-12-06T21:29:16.927Z,3.70
2022-12-06T21:31:45.418Z,3.80
2022-12-06T21:34:13.834Z,3.70
2022-12-06T21:36:42.235Z,3.80
2022-12-06T21:39:11.412Z,3.80
2022-12-06T21:41:39.586Z,3.80
2022-12-06T21:44:09.104Z,3.80
2022-12-06T21:46:37.070Z,3.80
2022-12-06T21:49:05.094Z,3.80
2022-12-06T21:51:33.371Z,3.80
2022-12-06T21:54:01.467Z,3.80
2022-12-06T21:56:31.458Z,3.80
2022-12-06T21:59:01.192Z,3.70
2022-12-06T22:01:32.593Z,3.80
2022-12-06T22:04:03.011Z,3.80
2022-12-06T22:06:31.457Z,3.70
2022-12-06T22:09:01.267Z,3.70
2022-12-06T22:11:30.543Z,3.80
2022-12-06T22:13:59.562Z,3.80
2022-12-06T22:16:27.719Z,3.80
2022-12-06T22:18:57.539Z,3.80
2022-12-06T22:21:26.761Z,3.80
2022-12-06T22:23:55.755Z,3.70
2022-12-06T22:26:24.059Z,3.80
2022-12-06T22:28:52.407Z,3.80
2022-12-06T22:31:22.439Z,3.80
2022-12-06T22:33:51.722Z,3.80
2022-12-06T22:36:22.357Z,3.80
2022-12-06T22:38:50.880Z,3.80
2022-12-06T22:41:19.576Z,3.80
2022-12-06T22:43:50.561Z,3.80
2022-12-06T22:46:18.746Z,3.80
2022-12-06T22:48:46.930Z,3.80
2022-12-06T22:51:16.711Z,3.80
2022-12-06T22:53:48.000Z,3.80
2022-12-06T22:56:16.880Z,3.80
2022-12-06T22:58:44.819Z,3.80
2022-12-06T23:01:16.413Z,3.80
2022-12-06T23:03:45.797Z,3.90
2022-12-06T23:06:14.292Z,3.80
2022-12-06T23:08:42.420Z,3.80
2022-12-06T23:11:14.324Z,3.70
2022-12-06T23:13:42.485Z,3.70
2022-12-06T23:16:14.337Z,3.80
2022-12-06T23:18:42.845Z,3.70
2022-12-06T23:21:14.779Z,3.70
2022-12-06T23:23:45.683Z,3.70
2022-12-06T23:26:16.671Z,3.70
2022-12-06T23:28:45.433Z,3.70
2022-12-06T23:31:15.360Z,3.70
2022-12-06T23:33:44.584Z,3.70
2022-12-06T23:36:14.768Z,3.80
2022-12-06T23:38:42.734Z,3.70
2022-12-06T23:41:12.163Z,3.70
2022-12-06T23:43:42.173Z,3.70
2022-12-06T23:46:12.601Z,3.70
2022-12-06T23:48:41.032Z,3.60
2022-12-06T23:51:10.559Z,3.70
2022-12-06T23:53:39.170Z,3.60
2022-12-06T23:56:09.383Z,3.70
2022-12-06T23:58:37.832Z,3.70
